Walla Walla Regional Airport Walla Walla US
ICAO: KALW
IATA: ALW
Category: Medium
Scheduled Services: Yes

Elevation: 1194 ft
TransAlt. 18000 ft.

Airport Communications:
CHINOOK APP/DEP:133.15
ASOS:135.875
CTAF:118.5
GND:121.6
SEATTLE RDO:122.3
TWR:118.5

KALW Zoom In..

Runways:

(A) RW 02 length 6527 ft width 150 ft
---- / hdg 16

(B) RW 07 length 4486 ft width 150 ft
---- / hdg 70

(C) RW 16 length 5948 ft width 150 ft
---- / hdg 160

(D) RW 20 length 6527 ft width 150 ft
ILS 111.70 / hdg 196

(E) RW 25 length 4486 ft width 150 ft
---- / hdg 250

(F) RW 34 length 5948 ft width 150 ft
---- / hdg 340

Location; KALW
Day. 05 / Time. 17.53 Zulu
* Altimeter: 29.65
* Temperature: 17° c. 62.6°f.
* Wind from: 250° Speed 03 kn.
Dewpoint: 09° c.
Visibility: 10 Statute Miles.
Clouds: Clear (automated report).

KALW 051753Z 25003KT 10SM CLR 17/09 A2965 RMK AO2 SLP037 T01720089 10178 20117 58016


Wind From 250°
Speed 03 kn.

 
 
jpsmedia worldairports.se 2020   terms of use